CheckWX is a tool to help pilots better visualize weather data.  It is not intended as a substitute for an official pre-flight weather briefing.

00:15:06 UTC

KASH METAR
Boire Field Airport
Nashua, New Hampshire, USA
Current

19 mins ago

KASH 182356Z 31007KT 10SM SCT038 09/03 A2986 RMK AO2 SLP117 6//// T00940028 10139 20089 51022 PNO $
Observed
Oct-18 @ 23:56 UTC
Wind
  • 310° at 7 KTS
Visibility
10 SM
Flight Rules
VFR
Cloud Levels
  • Scattered at 3,800' AGL
Temperature
C / 48°F
Dewpoint
C / 37°F
Humidity
66%
Altimeter
29.86" Hg
Pressure
1011.22 hPa
Previous

1 hour ago

KASH 182256Z 30008G14KT 10SM BKN038 11/03 A2984 RMK AO2 SLP111 T01060028 PNO $
Observed
Oct-18 @ 22:56 UTC
Wind
  • 300° at 8 KTS
  • Gusting to 14 KTS
Visibility
10 SM
Flight Rules
VFR
Cloud Levels
  • Broken at 3,800' AGL
Temperature
11°C / 52°F
Dewpoint
C / 37°F
Humidity
58%
Altimeter
29.84" Hg
Pressure
1010.52 hPa
Previous

2 hours ago

KASH 182156Z 30012G21KT 260V330 10SM SCT042 11/03 A2982 RMK AO2 SLP103 T01110028 PNO $
Observed
Oct-18 @ 21:56 UTC
Wind
  • 300° at 12 KTS
  • Gusting to 21 KTS
Visibility
10 SM
Flight Rules
VFR
Cloud Levels
  • Scattered at 4,200' AGL
Temperature
11°C / 52°F
Dewpoint
C / 37°F
Humidity
58%
Altimeter
29.82" Hg
Pressure
1009.82 hPa